Time;durP1;ratioP1;P1;durP2;ratioP2;P2;SDS_P1;SDS_P2;PMS_P1;PMS_P2;Temp;Humidity;BMP_temperature;BMP_pressure;BME280_temperature;BME280_humidity;BME280_pressure;Samples;Min_cycle;Max_cycle;Signal;HPM_P1;HPM_P2
2021/03/16 00:01:16;;;;;;;19.90;4.22;;;;;;;;;;4266167;33;20041;-77
2021/03/16 00:03:51;;;;;;;18.67;4.12;;;;;;;;;;4275646;33;20475;-77
2021/03/16 00:06:19;;;;;;;12.32;5.00;;;;;;;;;;4283613;33;20459;-77
2021/03/16 00:08:47;;;;;;;18.20;4.25;;;;;;;;;;4284997;33;20057;-77
2021/03/16 00:11:15;;;;;;;15.35;4.05;;;;;;;;;;4286868;33;20547;-77
2021/03/16 00:13:44;;;;;;;17.98;4.00;;;;;;;;;;4271614;33;20053;-77
2021/03/16 00:16:12;;;;;;;16.30;3.50;;;;;;;;;;4276029;33;20065;-77
2021/03/16 00:18:40;;;;;;;16.73;3.53;;;;;;;;;;4283396;33;20175;-77
2021/03/16 00:21:09;;;;;;;14.57;3.40;;;;;;;;;;4279817;33;20134;-77
2021/03/16 00:23:36;;;;;;;19.23;16.17;;;;;;;;;;4259598;33;20057;-77
2021/03/16 00:26:04;;;;;;;14.05;5.62;;;;;;;;;;4275198;33;20104;-77
2021/03/16 00:28:33;;;;;;;12.70;3.65;;;;;;;;;;4279117;33;20075;-77
2021/03/16 00:31:01;;;;;;;11.65;3.40;;;;;;;;;;4271759;33;20641;-77
2021/03/16 00:33:29;;;;;;;73.03;56.88;;;;;;;;;;4272841;33;20426;-79
2021/03/16 00:35:57;;;;;;;10.88;3.25;;;;;;;;;;4276935;33;20625;-77
2021/03/16 00:38:26;;;;;;;21.40;11.88;;;;;;;;;;4276365;33;20449;-77
2021/03/16 00:40:54;;;;;;;25.42;19.85;;;;;;;;;;4271903;33;20088;-77
2021/03/16 00:43:22;;;;;;;17.00;12.60;;;;;;;;;;4270742;33;20123;-78
2021/03/16 00:45:50;;;;;;;11.05;8.07;;;;;;;;;;4282552;33;20146;-77
2021/03/16 00:48:19;;;;;;;13.98;9.32;;;;;;;;;;4279741;33;20124;-78
2021/03/16 00:50:48;;;;;;;15.02;3.50;;;;;;;;;;4275459;33;20144;-77
2021/03/16 00:53:16;;;;;;;11.00;3.22;;;;;;;;;;4273398;33;20056;-78
2021/03/16 00:55:44;;;;;;;16.80;3.35;;;;;;;;;;4283214;33;20555;-78
2021/03/16 00:58:13;;;;;;;11.98;3.72;;;;;;;;;;4282830;33;20454;-77
2021/03/16 01:00:41;;;;;;;11.40;3.80;;;;;;;;;;4277099;33;20092;-77
2021/03/16 01:03:09;;;;;;;10.90;3.40;;;;;;;;;;4274972;33;20408;-77
2021/03/16 01:05:37;;;;;;;12.90;3.55;;;;;;;;;;4282314;33;20179;-77
2021/03/16 01:08:05;;;;;;;8.90;3.58;;;;;;;;;;4282517;33;20504;-78
2021/03/16 01:10:33;;;;;;;12.27;3.05;;;;;;;;;;4277772;33;20096;-77
2021/03/16 01:13:02;;;;;;;11.40;3.42;;;;;;;;;;4282148;33;20111;-79
2021/03/16 01:15:30;;;;;;;15.50;3.67;;;;;;;;;;4281850;33;20071;-77
2021/03/16 01:17:58;;;;;;;8.25;3.10;;;;;;;;;;4284310;33;20054;-77
2021/03/16 01:20:27;;;;;;;10.35;3.80;;;;;;;;;;4280454;33;20134;-78
2021/03/16 01:22:55;;;;;;;10.32;3.03;;;;;;;;;;4283067;33;20065;-77
2021/03/16 01:25:23;;;;;;;15.88;3.95;;;;;;;;;;4288700;33;20045;-77
2021/03/16 01:27:51;;;;;;;12.68;3.05;;;;;;;;;;4289742;33;20069;-77
2021/03/16 01:30:19;;;;;;;17.10;7.47;;;;;;;;;;4281572;33;20127;-76
2021/03/16 01:32:52;;;;;;;11.68;4.07;;;;;;;;;;4276296;33;20057;-78
2021/03/16 01:35:22;;;;;;;53.17;31.67;;;;;;;;;;4284482;33;20119;-77
2021/03/16 01:37:54;;;;;;;34.70;20.08;;;;;;;;;;4285386;33;20099;-78
2021/03/16 01:40:27;;;;;;;45.17;35.63;;;;;;;;;;4290194;33;20083;-77
2021/03/16 01:43:06;;;;;;;23.98;13.43;;;;;;;;;;4275995;33;20085;-77
2021/03/16 01:45:34;;;;;;;40.15;29.87;;;;;;;;;;4288348;33;20079;-79
2021/03/16 01:48:03;;;;;;;27.60;13.82;;;;;;;;;;4285490;33;20116;-77
2021/03/16 01:50:32;;;;;;;19.42;3.80;;;;;;;;;;4288375;33;20061;-78
2021/03/16 01:53:01;;;;;;;15.95;4.03;;;;;;;;;;4279194;33;20497;-77
2021/03/16 01:55:30;;;;;;;12.73;3.70;;;;;;;;;;4285693;33;20114;-77
2021/03/16 01:57:58;;;;;;;12.48;3.58;;;;;;;;;;4282543;33;20095;-77
2021/03/16 02:00:45;;;;;;;12.30;3.58;;;;;;;;;;4272813;33;20113;-78
2021/03/16 02:03:31;;;;;;;23.08;13.95;;;;;;;;;;4272764;33;20452;-78
2021/03/16 02:06:30;;;;;;;17.33;4.12;;;;;;;;;;4274499;33;20111;-76
2021/03/16 02:09:34;;;;;;;20.25;8.27;;;;;;;;;;4279463;33;20045;-76
2021/03/16 02:12:26;;;;;;;15.02;3.75;;;;;;;;;;4279001;33;20072;-77
2021/03/16 02:15:12;;;;;;;15.05;3.87;;;;;;;;;;4279727;33;20045;-77
2021/03/16 02:18:02;;;;;;;12.70;3.40;;;;;;;;;;4268817;33;20127;-77
2021/03/16 02:21:17;;;;;;;12.63;3.83;;;;;;;;;;4278923;33;20089;-77
2021/03/16 02:24:10;;;;;;;48.42;34.78;;;;;;;;;;4279482;33;20077;-77
2021/03/16 02:27:09;;;;;;;50.95;32.22;;;;;;;;;;4268891;33;20113;-78
2021/03/16 02:30:00;;;;;;;29.50;14.75;;;;;;;;;;4276144;33;20111;-77
2021/03/16 02:32:47;;;;;;;23.20;16.77;;;;;;;;;;4278541;33;20148;-78
2021/03/16 02:35:34;;;;;;;19.90;4.18;;;;;;;;;;4266799;33;20330;-78
2021/03/16 02:38:23;;;;;;;10.77;3.97;;;;;;;;;;4271109;33;20062;-77
2021/03/16 02:41:10;;;;;;;20.52;4.00;;;;;;;;;;4276644;33;20114;-77
2021/03/16 02:43:57;;;;;;;15.60;4.53;;;;;;;;;;4268658;33;20084;-77
2021/03/16 02:46:45;;;;;;;19.55;4.10;;;;;;;;;;4265253;33;20519;-77
2021/03/16 02:49:33;;;;;;;13.57;3.90;;;;;;;;;;4279807;33;20077;-76
2021/03/16 02:52:19;;;;;;;21.92;4.60;;;;;;;;;;4277521;33;20136;-77
2021/03/16 02:55:06;;;;;;;12.32;3.65;;;;;;;;;;4266826;33;20066;-77
2021/03/16 02:57:53;;;;;;;16.48;4.87;;;;;;;;;;4271486;33;20054;-77
2021/03/16 03:00:39;;;;;;;15.18;4.43;;;;;;;;;;4275376;33;20625;-77
2021/03/16 03:03:26;;;;;;;20.17;7.68;;;;;;;;;;4275087;33;20827;-78
2021/03/16 03:06:16;;;;;;;13.95;6.82;;;;;;;;;;4266645;33;20132;-78
2021/03/16 03:09:03;;;;;;;16.55;8.38;;;;;;;;;;4270334;33;20123;-78
2021/03/16 03:14:39;;;;;;;19.73;4.68;;;;;;;;;;4279788;33;20061;-77
2021/03/16 03:17:26;;;;;;;23.77;5.35;;;;;;;;;;4286978;33;20061;-76
2021/03/16 03:20:14;;;;;;;19.75;4.53;;;;;;;;;;4290862;33;20463;-76
2021/03/16 03:23:00;;;;;;;14.18;4.12;;;;;;;;;;4306638;27;20472;-84
2021/03/16 03:25:53;;;;;;;17.05;4.10;;;;;;;;;;4279689;33;20060;-84
2021/03/16 03:28:41;;;;;;;11.35;3.75;;;;;;;;;;4274725;33;20089;-83
2021/03/16 03:31:28;;;;;;;13.50;4.18;;;;;;;;;;4268251;33;20239;-84
2021/03/16 03:34:16;;;;;;;13.80;3.72;;;;;;;;;;4278186;33;20049;-84
2021/03/16 03:37:03;;;;;;;14.45;3.62;;;;;;;;;;4268037;33;20049;-84
2021/03/16 03:39:49;;;;;;;14.23;4.20;;;;;;;;;;4282708;33;20105;-84
2021/03/16 03:42:37;;;;;;;14.63;4.55;;;;;;;;;;4272498;33;20159;-84
2021/03/16 03:45:25;;;;;;;11.82;4.12;;;;;;;;;;4269393;33;20109;-83
2021/03/16 03:48:12;;;;;;;14.87;3.85;;;;;;;;;;4281023;33;20053;-84
2021/03/16 03:51:00;;;;;;;14.05;4.82;;;;;;;;;;4264373;33;20061;-84
2021/03/16 03:53:47;;;;;;;15.05;4.78;;;;;;;;;;4260781;33;20588;-84
2021/03/16 03:56:35;;;;;;;17.90;4.95;;;;;;;;;;4278472;33;20514;-85
2021/03/16 03:59:23;;;;;;;18.37;9.27;;;;;;;;;;4275245;33;20112;-84
2021/03/16 04:02:11;;;;;;;15.73;4.10;;;;;;;;;;4281323;33;20046;-84
2021/03/16 04:04:58;;;;;;;26.85;9.68;;;;;;;;;;4283042;33;20515;-84
2021/03/16 04:07:44;;;;;;;17.23;8.40;;;;;;;;;;4277661;33;20803;-84
2021/03/16 04:10:35;;;;;;;12.10;7.43;;;;;;;;;;4297048;33;20095;-83
2021/03/16 04:13:22;;;;;;;16.87;9.52;;;;;;;;;;4282196;33;20064;-83
2021/03/16 04:16:08;;;;;;;17.02;8.52;;;;;;;;;;4271263;33;20117;-83
2021/03/16 04:18:55;;;;;;;19.37;4.90;;;;;;;;;;4278589;33;20070;-84
2021/03/16 04:21:42;;;;;;;21.42;8.00;;;;;;;;;;4276050;33;20076;-83
2021/03/16 04:24:29;;;;;;;25.23;17.23;;;;;;;;;;4284887;33;20112;-84
2021/03/16 04:27:15;;;;;;;19.55;11.75;;;;;;;;;;4278666;33;20064;-84
2021/03/16 04:30:02;;;;;;;16.25;10.82;;;;;;;;;;4274649;33;21202;-83
2021/03/16 04:32:48;;;;;;;26.10;11.48;;;;;;;;;;4268983;33;20049;-85
2021/03/16 04:35:37;;;;;;;18.50;7.03;;;;;;;;;;4269699;33;20152;-84
2021/03/16 04:38:24;;;;;;;19.75;7.80;;;;;;;;;;4265756;33;20096;-84
2021/03/16 04:41:10;;;;;;;21.42;12.30;;;;;;;;;;4267975;33;20165;-85
2021/03/16 04:43:56;;;;;;;18.40;11.68;;;;;;;;;;4269313;33;20065;-83
2021/03/16 04:46:43;;;;;;;17.25;11.05;;;;;;;;;;4268377;33;20144;-84
2021/03/16 04:49:30;;;;;;;16.33;8.18;;;;;;;;;;4263327;33;20464;-84
2021/03/16 04:52:16;;;;;;;19.02;8.73;;;;;;;;;;4269970;33;20058;-84
2021/03/16 04:55:03;;;;;;;17.30;7.35;;;;;;;;;;4274636;33;20191;-84
2021/03/16 04:57:49;;;;;;;22.37;15.20;;;;;;;;;;4270474;33;20479;-83
2021/03/16 05:00:36;;;;;;;16.50;4.75;;;;;;;;;;4270637;33;20117;-83
2021/03/16 05:03:22;;;;;;;18.15;5.10;;;;;;;;;;4277059;33;20085;-84
2021/03/16 05:06:09;;;;;;;23.38;5.37;;;;;;;;;;4273278;33;20099;-85
2021/03/16 05:08:57;;;;;;;20.40;5.25;;;;;;;;;;4262058;33;20124;-84
2021/03/16 05:11:43;;;;;;;16.23;4.78;;;;;;;;;;4275240;33;20065;-84
2021/03/16 05:14:30;;;;;;;20.20;5.12;;;;;;;;;;4275690;33;20123;-83
2021/03/16 05:17:16;;;;;;;16.67;4.82;;;;;;;;;;4282188;33;20432;-84
2021/03/16 05:20:03;;;;;;;18.30;4.45;;;;;;;;;;4275010;33;20444;-84
2021/03/16 05:22:50;;;;;;;24.77;9.07;;;;;;;;;;4274275;33;20136;-84
2021/03/16 05:25:36;;;;;;;19.55;4.65;;;;;;;;;;4285989;33;20113;-84
2021/03/16 05:28:22;;;;;;;19.60;4.72;;;;;;;;;;4261795;33;20116;-85
2021/03/16 05:31:09;;;;;;;18.48;4.93;;;;;;;;;;4279040;33;20847;-84
2021/03/16 05:33:55;;;;;;;16.20;4.15;;;;;;;;;;4278092;33;20431;-84
2021/03/16 05:36:42;;;;;;;15.32;5.07;;;;;;;;;;4283722;33;20551;-84
2021/03/16 05:39:28;;;;;;;15.07;4.68;;;;;;;;;;4275865;33;20421;-85
2021/03/16 05:42:17;;;;;;;18.48;4.47;;;;;;;;;;4273939;33;20136;-84
2021/03/16 05:45:03;;;;;;;17.42;4.12;;;;;;;;;;4274611;33;20105;-85
2021/03/16 05:47:51;;;;;;;16.65;4.55;;;;;;;;;;4264119;33;20135;-83
2021/03/16 05:50:38;;;;;;;17.10;4.07;;;;;;;;;;4279570;33;20163;-84
2021/03/16 05:53:24;;;;;;;16.17;3.90;;;;;;;;;;4275100;33;20077;-84
2021/03/16 05:56:11;;;;;;;13.98;3.60;;;;;;;;;;4272387;33;20079;-84
2021/03/16 05:58:57;;;;;;;13.35;4.40;;;;;;;;;;4270837;33;20143;-84
2021/03/16 06:01:43;;;;;;;17.87;4.47;;;;;;;;;;4276529;33;20072;-84
2021/03/16 06:04:30;;;;;;;19.48;4.62;;;;;;;;;;4270131;33;20621;-84
2021/03/16 06:07:17;;;;;;;22.35;4.20;;;;;;;;;;4248424;33;20893;-84
2021/03/16 06:10:03;;;;;;;23.30;5.10;;;;;;;;;;4271824;33;20113;-84
2021/03/16 06:12:50;;;;;;;14.85;4.30;;;;;;;;;;4274609;33;20053;-84
2021/03/16 06:15:36;;;;;;;17.85;4.20;;;;;;;;;;4273895;33;20167;-84
2021/03/16 06:18:29;;;;;;;22.90;7.78;;;;;;;;;;4270483;33;20121;-83
2021/03/16 06:21:20;;;;;;;18.58;4.43;;;;;;;;;;4279584;33;20132;-84
2021/03/16 06:24:07;;;;;;;16.60;4.10;;;;;;;;;;4276109;33;20535;-85
2021/03/16 06:26:53;;;;;;;18.12;4.65;;;;;;;;;;4249493;33;20445;-84
2021/03/16 06:29:41;;;;;;;12.32;3.87;;;;;;;;;;4264438;33;20097;-84
2021/03/16 06:32:36;;;;;;;18.83;4.40;;;;;;;;;;4269313;33;20253;-83
2021/03/16 06:35:24;;;;;;;20.17;4.00;;;;;;;;;;4274620;33;20049;-84
2021/03/16 06:38:11;;;;;;;22.85;4.95;;;;;;;;;;4273148;33;20136;-85
2021/03/16 06:41:12;;;;;;;14.90;4.53;;;;;;;;;;4274459;33;20113;-84
2021/03/16 06:44:04;;;;;;;18.62;4.22;;;;;;;;;;4270579;33;20205;-84
2021/03/16 06:46:53;;;;;;;16.70;4.53;;;;;;;;;;4260729;33;20183;-85
2021/03/16 06:49:40;;;;;;;14.70;3.67;;;;;;;;;;4271819;33;20381;-84
2021/03/16 06:52:27;;;;;;;21.70;4.25;;;;;;;;;;4280304;33;20109;-84
2021/03/16 06:55:14;;;;;;;14.87;4.57;;;;;;;;;;4272555;33;20175;-84
2021/03/16 06:58:10;;;;;;;17.17;4.53;;;;;;;;;;4280157;33;20076;-84
2021/03/16 07:01:06;;;;;;;19.45;4.50;;;;;;;;;;4278281;33;20448;-84
2021/03/16 07:03:53;;;;;;;15.77;4.20;;;;;;;;;;4262937;33;20076;-84
2021/03/16 07:06:41;;;;;;;16.15;4.30;;;;;;;;;;4266270;33;20109;-84
2021/03/16 07:09:28;;;;;;;14.18;4.10;;;;;;;;;;4277730;33;20105;-83
2021/03/16 07:12:16;;;;;;;55.60;44.13;;;;;;;;;;4280268;33;20053;-83
2021/03/16 07:15:04;;;;;;;13.77;4.60;;;;;;;;;;4269986;33;20080;-84
2021/03/16 07:17:51;;;;;;;61.53;48.22;;;;;;;;;;4270051;33;20105;-83
2021/03/16 07:20:37;;;;;;;75.62;58.13;;;;;;;;;;4257763;33;20160;-84
2021/03/16 07:23:25;;;;;;;15.27;3.85;;;;;;;;;;4266387;33;20155;-84
2021/03/16 07:26:12;;;;;;;16.08;4.15;;;;;;;;;;4267499;33;20061;-83
2021/03/16 07:28:59;;;;;;;77.60;51.03;;;;;;;;;;4270162;33;20061;-83
2021/03/16 07:31:45;;;;;;;70.03;57.03;;;;;;;;;;4277493;33;20172;-84
2021/03/16 07:34:32;;;;;;;22.02;12.30;;;;;;;;;;4273726;33;20042;-85
2021/03/16 07:37:19;;;;;;;48.92;40.40;;;;;;;;;;4267489;33;21236;-84
2021/03/16 07:40:06;;;;;;;12.02;3.58;;;;;;;;;;4270113;33;20081;-84
2021/03/16 07:42:53;;;;;;;13.68;4.15;;;;;;;;;;4261752;33;20096;-84
2021/03/16 07:45:39;;;;;;;21.92;13.65;;;;;;;;;;4272505;33;20105;-83
2021/03/16 07:48:30;;;;;;;15.07;4.65;;;;;;;;;;4271723;33;20053;-84
2021/03/16 07:51:18;;;;;;;14.60;3.60;;;;;;;;;;4277991;33;20126;-84
2021/03/16 07:54:06;;;;;;;16.92;5.68;;;;;;;;;;4273656;33;20132;-85
2021/03/16 07:56:59;;;;;;;15.10;4.78;;;;;;;;;;4269679;33;20125;-83
2021/03/16 08:00:01;;;;;;;13.62;3.53;;;;;;;;;;4283746;33;20083;-83
2021/03/16 08:02:56;;;;;;;14.48;4.40;;;;;;;;;;4279007;33;20038;-84
2021/03/16 08:05:44;;;;;;;12.15;5.50;;;;;;;;;;4286005;33;20074;-84
2021/03/16 08:08:41;;;;;;;26.95;21.20;;;;;;;;;;4287922;33;20190;-85
2021/03/16 08:11:37;;;;;;;15.95;4.90;;;;;;;;;;4276378;33;20082;-84
2021/03/16 08:14:25;;;;;;;12.85;3.67;;;;;;;;;;4261567;33;20050;-84
2021/03/16 08:17:11;;;;;;;12.13;3.53;;;;;;;;;;4291754;33;20053;-83
2021/03/16 08:19:59;;;;;;;14.02;3.92;;;;;;;;;;4284550;33;20077;-84
2021/03/16 08:22:45;;;;;;;14.80;6.80;;;;;;;;;;4275507;33;20175;-85
2021/03/16 08:25:32;;;;;;;22.83;11.12;;;;;;;;;;4264596;33;20120;-85
2021/03/16 08:28:19;;;;;;;9.73;2.65;;;;;;;;;;4280062;33;20049;-83
2021/03/16 08:31:08;;;;;;;15.30;11.40;;;;;;;;;;4280188;33;20053;-84
2021/03/16 08:33:55;;;;;;;17.83;11.98;;;;;;;;;;4277411;33;20187;-84
2021/03/16 08:36:42;;;;;;;20.02;13.20;;;;;;;;;;4294217;33;20057;-84
2021/03/16 08:39:29;;;;;;;13.43;6.37;;;;;;;;;;4285285;33;20109;-84
2021/03/16 08:42:19;;;;;;;13.85;7.60;;;;;;;;;;4280204;33;20049;-83
2021/03/16 08:45:06;;;;;;;16.08;3.28;;;;;;;;;;4279276;33;20059;-84
2021/03/16 08:47:52;;;;;;;15.82;12.30;;;;;;;;;;4288243;33;20085;-84
2021/03/16 08:50:39;;;;;;;18.15;12.27;;;;;;;;;;4278942;33;20125;-84
2021/03/16 08:53:26;;;;;;;12.07;3.55;;;;;;;;;;4277720;33;20109;-83
2021/03/16 08:56:12;;;;;;;10.73;7.65;;;;;;;;;;4270859;33;20439;-84
2021/03/16 08:59:02;;;;;;;8.23;3.17;;;;;;;;;;4276123;33;20572;-85
2021/03/16 09:02:04;;;;;;;12.25;3.15;;;;;;;;;;4278150;33;20109;-85
2021/03/16 09:04:51;;;;;;;11.32;3.30;;;;;;;;;;4280711;33;20042;-84
2021/03/16 09:07:38;;;;;;;5.80;2.47;;;;;;;;;;4272980;33;20054;-85
2021/03/16 09:10:25;;;;;;;12.35;2.95;;;;;;;;;;4283642;33;20974;-85
2021/03/16 09:13:11;;;;;;;13.07;3.00;;;;;;;;;;4279961;33;20277;-85
2021/03/16 09:15:58;;;;;;;7.97;2.75;;;;;;;;;;4282622;33;20484;-86
2021/03/16 09:18:47;;;;;;;7.25;2.47;;;;;;;;;;4287951;33;20053;-85
2021/03/16 09:21:34;;;;;;;7.85;2.60;;;;;;;;;;4281829;33;20057;-86
2021/03/16 09:24:22;;;;;;;9.88;2.75;;;;;;;;;;4291221;33;20054;-85
2021/03/16 09:27:09;;;;;;;10.98;3.08;;;;;;;;;;4285777;33;20416;-85
2021/03/16 09:29:55;;;;;;;8.68;2.60;;;;;;;;;;4274160;33;20421;-86
2021/03/16 09:32:46;;;;;;;9.15;3.20;;;;;;;;;;4289237;33;20632;-85
2021/03/16 09:35:33;;;;;;;7.47;3.33;;;;;;;;;;4287255;33;20116;-85
2021/03/16 09:38:19;;;;;;;10.55;2.95;;;;;;;;;;4281864;33;20131;-84
2021/03/16 09:40:49;;;;;;;10.88;3.42;;;;;;;;;;4284262;33;20117;-85
2021/03/16 09:43:22;;;;;;;13.65;3.70;;;;;;;;;;4282201;33;20155;-86
2021/03/16 09:45:55;;;;;;;8.23;2.47;;;;;;;;;;4281838;33;20065;-85
2021/03/16 09:48:25;;;;;;;9.85;2.53;;;;;;;;;;4290613;33;20159;-86
2021/03/16 09:50:54;;;;;;;7.95;2.80;;;;;;;;;;4284661;33;20117;-86
2021/03/16 09:53:22;;;;;;;10.35;3.10;;;;;;;;;;4271695;33;20541;-85
2021/03/16 09:55:58;;;;;;;6.95;2.53;;;;;;;;;;4275899;33;20376;-85
2021/03/16 09:58:28;;;;;;;13.05;3.08;;;;;;;;;;4286176;33;20065;-86
2021/03/16 10:00:57;;;;;;;8.32;3.12;;;;;;;;;;4264408;33;20112;-85
2021/03/16 10:03:25;;;;;;;9.18;2.70;;;;;;;;;;4278147;33;20554;-86
2021/03/16 10:06:04;;;;;;;9.15;3.35;;;;;;;;;;4278410;33;20053;-86
2021/03/16 10:08:33;;;;;;;10.30;3.12;;;;;;;;;;4281469;33;20794;-86
2021/03/16 10:11:01;;;;;;;6.57;2.62;;;;;;;;;;4278713;33;20071;-86
2021/03/16 10:13:33;;;;;;;5.12;2.37;;;;;;;;;;4287598;33;20052;-86
2021/03/16 10:16:09;;;;;;;12.90;3.15;;;;;;;;;;4286390;33;20097;-86
2021/03/16 10:18:42;;;;;;;7.55;2.72;;;;;;;;;;4282996;33;20136;-86
2021/03/16 10:21:14;;;;;;;8.77;3.10;;;;;;;;;;4284636;33;20114;-85
2021/03/16 10:23:42;;;;;;;10.73;2.70;;;;;;;;;;4263760;33;20112;-85
2021/03/16 10:26:12;;;;;;;6.95;2.97;;;;;;;;;;4281802;33;20111;-85
2021/03/16 10:28:42;;;;;;;21.20;3.55;;;;;;;;;;4285417;33;20042;-85
2021/03/16 10:31:11;;;;;;;8.68;2.90;;;;;;;;;;4280484;33;20527;-85
2021/03/16 10:33:39;;;;;;;9.73;3.00;;;;;;;;;;4285252;33;20650;-86
2021/03/16 10:36:08;;;;;;;7.15;2.80;;;;;;;;;;4288621;33;20045;-86
2021/03/16 10:38:36;;;;;;;8.27;3.05;;;;;;;;;;4285890;33;20037;-85
2021/03/16 10:41:04;;;;;;;9.40;2.83;;;;;;;;;;4277452;33;20087;-86
2021/03/16 10:43:33;;;;;;;7.28;2.62;;;;;;;;;;4280205;33;20522;-85
2021/03/16 10:46:01;;;;;;;6.57;2.80;;;;;;;;;;4277577;33;20460;-85
2021/03/16 10:48:34;;;;;;;;;;;;;;;;;;4284339;33;20041;-86
2021/03/16 10:51:03;;;;;;;6.00;2.42;;;;;;;;;;4277822;33;20422;-86
2021/03/16 10:53:31;;;;;;;11.38;2.83;;;;;;;;;;4281272;33;20144;-86
2021/03/16 10:56:05;;;;;;;7.43;2.80;;;;;;;;;;4280851;33;20123;-86
2021/03/16 10:58:33;;;;;;;20.65;3.58;;;;;;;;;;4281452;33;20057;-86
2021/03/16 11:01:02;;;;;;;7.87;2.78;;;;;;;;;;4279876;33;20148;-87
2021/03/16 11:03:33;;;;;;;8.07;3.25;;;;;;;;;;4279485;33;20464;-86
2021/03/16 11:06:03;;;;;;;8.70;2.80;;;;;;;;;;4282050;33;20124;-84
2021/03/16 11:08:32;;;;;;;10.55;2.97;;;;;;;;;;4281646;33;20156;-86
2021/03/16 11:11:01;;;;;;;7.90;2.85;;;;;;;;;;4277218;33;20108;-86
2021/03/16 11:13:29;;;;;;;8.45;2.70;;;;;;;;;;4274180;33;20073;-85
2021/03/16 11:15:57;;;;;;;10.07;3.00;;;;;;;;;;4277797;33;20057;-85
2021/03/16 11:18:26;;;;;;;6.00;2.60;;;;;;;;;;4281786;33;20045;-85
2021/03/16 11:20:55;;;;;;;10.80;2.90;;;;;;;;;;4270422;33;20080;-87
2021/03/16 11:23:23;;;;;;;9.35;2.75;;;;;;;;;;4281653;33;20065;-85
2021/03/16 11:25:51;;;;;;;7.53;2.95;;;;;;;;;;4279457;33;20053;-86
2021/03/16 11:28:19;;;;;;;9.50;2.55;;;;;;;;;;4281005;33;20069;-85
2021/03/16 11:30:47;;;;;;;9.55;2.75;;;;;;;;;;4282449;33;20559;-85
2021/03/16 11:33:15;;;;;;;10.85;2.97;;;;;;;;;;4279803;33;20112;-85
2021/03/16 11:36:01;;;;;;;10.15;3.00;;;;;;;;;;4265387;33;20076;-85
2021/03/16 11:38:49;;;;;;;9.80;2.72;;;;;;;;;;4277614;33;20101;-86
2021/03/16 11:41:35;;;;;;;9.48;2.67;;;;;;;;;;4281698;33;20084;-86
2021/03/16 11:44:21;;;;;;;8.10;2.83;;;;;;;;;;4267765;33;20073;-85
2021/03/16 11:47:23;;;;;;;11.85;3.10;;;;;;;;;;4282128;33;20079;-85
2021/03/16 11:50:10;;;;;;;9.77;2.70;;;;;;;;;;4283293;33;20053;-85
2021/03/16 11:52:56;;;;;;;14.77;3.37;;;;;;;;;;4282234;33;20853;-85
2021/03/16 11:55:43;;;;;;;14.20;3.17;;;;;;;;;;4285040;33;20473;-85
2021/03/16 11:58:29;;;;;;;8.75;3.05;;;;;;;;;;4281954;33;20057;-85
2021/03/16 12:01:15;;;;;;;24.40;3.87;;;;;;;;;;4274616;33;20095;-84
2021/03/16 12:04:02;;;;;;;9.18;2.87;;;;;;;;;;4280501;33;20194;-85
2021/03/16 12:06:49;;;;;;;9.43;2.87;;;;;;;;;;4275468;33;21351;-85
2021/03/16 12:09:35;;;;;;;15.30;3.28;;;;;;;;;;4284310;33;20050;-85
2021/03/16 12:12:22;;;;;;;10.52;2.83;;;;;;;;;;4281926;33;20718;-85
2021/03/16 12:15:11;;;;;;;8.95;2.60;;;;;;;;;;4284462;33;20109;-85
2021/03/16 12:17:57;;;;;;;9.75;3.10;;;;;;;;;;4283436;33;20073;-85
2021/03/16 12:20:44;;;;;;;7.35;2.60;;;;;;;;;;4273373;33;20061;-85
2021/03/16 12:23:30;;;;;;;7.10;2.87;;;;;;;;;;4281819;33;20071;-85
2021/03/16 12:26:16;;;;;;;56.00;5.78;;;;;;;;;;4284464;33;20915;-85
2021/03/16 12:29:03;;;;;;;10.00;3.12;;;;;;;;;;4284661;33;20829;-85
2021/03/16 12:31:49;;;;;;;8.52;3.03;;;;;;;;;;4272786;33;20049;-85
2021/03/16 12:34:47;;;;;;;10.85;3.03;;;;;;;;;;4282301;33;20542;-85
2021/03/16 12:37:33;;;;;;;8.60;2.45;;;;;;;;;;4283841;33;20046;-85
2021/03/16 12:40:20;;;;;;;9.95;2.72;;;;;;;;;;4283751;33;20097;-85
2021/03/16 12:43:06;;;;;;;7.43;2.58;;;;;;;;;;4272423;33;20101;-84
2021/03/16 12:45:52;;;;;;;10.93;3.20;;;;;;;;;;4278758;33;20108;-86
2021/03/16 12:48:39;;;;;;;8.13;3.00;;;;;;;;;;4277979;33;20033;-85
2021/03/16 12:51:29;;;;;;;9.95;3.10;;;;;;;;;;4287727;33;20833;-85
2021/03/16 12:54:16;;;;;;;7.97;3.00;;;;;;;;;;4282712;33;20495;-85
2021/03/16 12:57:02;;;;;;;12.88;3.40;;;;;;;;;;4274833;33;20100;-84
2021/03/16 12:59:49;;;;;;;8.23;2.85;;;;;;;;;;4283089;33;20107;-85
2021/03/16 13:02:35;;;;;;;8.40;2.75;;;;;;;;;;4268190;33;20460;-85
2021/03/16 13:05:24;;;;;;;7.90;2.67;;;;;;;;;;4285284;33;20057;-84
2021/03/16 13:08:10;;;;;;;9.35;3.08;;;;;;;;;;4282706;33;20073;-85
2021/03/16 13:10:56;;;;;;;13.02;3.10;;;;;;;;;;4281658;33;20105;-85
2021/03/16 13:13:43;;;;;;;10.30;3.60;;;;;;;;;;4272528;33;20053;-85
2021/03/16 13:16:30;;;;;;;10.38;2.80;;;;;;;;;;4271731;33;20105;-85
2021/03/16 13:19:16;;;;;;;10.90;3.47;;;;;;;;;;4277743;33;20449;-85
2021/03/16 13:22:03;;;;;;;12.75;3.17;;;;;;;;;;4281125;33;20104;-85
2021/03/16 13:24:50;;;;;;;8.23;3.17;;;;;;;;;;4276565;33;20058;-85
2021/03/16 13:27:36;;;;;;;8.43;3.20;;;;;;;;;;4279940;33;20061;-84
2021/03/16 13:30:22;;;;;;;8.25;3.12;;;;;;;;;;4277297;33;20104;-85
2021/03/16 13:33:09;;;;;;;10.52;2.97;;;;;;;;;;4278462;33;20735;-85
2021/03/16 13:35:56;;;;;;;9.30;2.95;;;;;;;;;;4282808;33;20452;-84
2021/03/16 13:38:47;;;;;;;9.35;2.87;;;;;;;;;;4283364;33;20061;-84
2021/03/16 13:41:34;;;;;;;13.45;3.12;;;;;;;;;;4275760;33;20065;-85
2021/03/16 13:44:20;;;;;;;19.58;3.70;;;;;;;;;;4274021;33;20108;-84
2021/03/16 13:47:07;;;;;;;14.80;3.67;;;;;;;;;;4276974;33;20257;-84
2021/03/16 13:49:53;;;;;;;10.35;3.08;;;;;;;;;;4278167;33;20132;-84
2021/03/16 13:52:40;;;;;;;10.57;3.35;;;;;;;;;;4267489;33;20048;-85
2021/03/16 13:55:26;;;;;;;12.80;4.00;;;;;;;;;;4277158;33;20510;-85
2021/03/16 13:58:17;;;;;;;13.70;3.40;;;;;;;;;;4267684;33;20133;-86
2021/03/16 14:01:04;;;;;;;10.35;3.20;;;;;;;;;;4281556;33;20057;-85
2021/03/16 14:03:51;;;;;;;9.55;3.20;;;;;;;;;;4266489;33;20101;-85
2021/03/16 14:06:37;;;;;;;14.25;3.28;;;;;;;;;;4281742;33;20067;-84
2021/03/16 14:09:23;;;;;;;9.55;3.10;;;;;;;;;;4283104;33;20201;-85
2021/03/16 14:12:10;;;;;;;10.50;3.40;;;;;;;;;;4278906;33;20487;-84
2021/03/16 14:14:58;;;;;;;11.85;3.58;;;;;;;;;;4285096;33;20491;-84
2021/03/16 14:17:44;;;;;;;11.32;2.90;;;;;;;;;;4281146;33;20069;-84
2021/03/16 14:20:32;;;;;;;11.48;3.20;;;;;;;;;;4282274;33;20075;-85
2021/03/16 14:23:18;;;;;;;12.93;3.53;;;;;;;;;;4273831;33;20097;-85
2021/03/16 14:26:04;;;;;;;12.25;3.45;;;;;;;;;;4275104;33;20066;-85
2021/03/16 14:28:51;;;;;;;9.63;2.97;;;;;;;;;;4284095;33;20075;-86
2021/03/16 14:31:38;;;;;;;10.40;2.78;;;;;;;;;;4280875;33;20110;-85
2021/03/16 14:34:25;;;;;;;11.15;2.75;;;;;;;;;;4282447;33;20155;-84
2021/03/16 14:37:11;;;;;;;7.85;2.80;;;;;;;;;;4274770;33;20143;-84
2021/03/16 14:39:58;;;;;;;14.43;3.40;;;;;;;;;;4283647;33;20780;-84
2021/03/16 14:42:47;;;;;;;11.95;3.15;;;;;;;;;;4278728;33;20088;-85
2021/03/16 14:45:33;;;;;;;25.58;3.97;;;;;;;;;;4279612;33;20045;-84
2021/03/16 14:48:20;;;;;;;12.15;3.15;;;;;;;;;;4281560;33;20048;-85
2021/03/16 14:51:07;;;;;;;10.65;3.17;;;;;;;;;;4278380;33;20103;-84
2021/03/16 14:53:53;;;;;;;12.10;3.12;;;;;;;;;;4281529;33;20171;-85
2021/03/16 14:56:40;;;;;;;14.65;3.08;;;;;;;;;;4273868;33;20571;-85
2021/03/16 14:59:26;;;;;;;8.93;3.05;;;;;;;;;;4266924;33;20096;-84
2021/03/16 15:02:13;;;;;;;11.73;3.30;;;;;;;;;;4278389;33;20116;-84
2021/03/16 15:04:59;;;;;;;10.23;3.05;;;;;;;;;;4283814;33;20427;-84
2021/03/16 15:07:46;;;;;;;9.13;3.10;;;;;;;;;;4288383;33;20069;-85
2021/03/16 15:10:33;;;;;;;8.18;3.00;;;;;;;;;;4282971;33;20108;-85
2021/03/16 15:13:19;;;;;;;15.45;3.20;;;;;;;;;;4267612;33;20051;-84
2021/03/16 15:16:05;;;;;;;12.37;3.25;;;;;;;;;;4288379;33;20077;-84
2021/03/16 15:18:52;;;;;;;14.87;3.65;;;;;;;;;;4286607;33;20073;-84
2021/03/16 15:21:39;;;;;;;10.93;3.28;;;;;;;;;;4281276;33;20095;-84
2021/03/16 15:24:28;;;;;;;13.05;3.20;;;;;;;;;;4281033;33;20566;-84
2021/03/16 15:27:15;;;;;;;12.15;3.17;;;;;;;;;;4281994;33;20050;-83
2021/03/16 15:30:01;;;;;;;8.90;2.92;;;;;;;;;;4284425;33;20543;-84
2021/03/16 15:32:48;;;;;;;14.20;3.20;;;;;;;;;;4278434;33;20124;-84
2021/03/16 15:35:36;;;;;;;12.70;3.58;;;;;;;;;;4273163;33;20128;-84
2021/03/16 15:38:24;;;;;;;14.23;3.53;;;;;;;;;;4278838;33;20112;-84
2021/03/16 15:41:11;;;;;;;15.30;3.75;;;;;;;;;;4276501;33;20104;-84
2021/03/16 15:43:57;;;;;;;12.18;3.03;;;;;;;;;;4276652;33;20108;-83
2021/03/16 15:46:43;;;;;;;33.15;4.05;;;;;;;;;;4280202;33;20054;-84
2021/03/16 15:49:30;;;;;;;12.73;3.42;;;;;;;;;;4284796;33;20072;-84
2021/03/16 15:52:24;;;;;;;13.85;3.20;;;;;;;;;;4276997;33;20116;-83
2021/03/16 15:55:11;;;;;;;13.62;3.60;;;;;;;;;;4277831;33;20151;-85
2021/03/16 15:57:58;;;;;;;15.05;3.47;;;;;;;;;;4277619;33;20485;-85
2021/03/16 16:00:46;;;;;;;13.02;3.25;;;;;;;;;;4274011;33;20093;-84
2021/03/16 16:03:32;;;;;;;8.95;2.90;;;;;;;;;;4276587;33;20049;-84
2021/03/16 16:06:20;;;;;;;12.50;3.00;;;;;;;;;;4285277;33;20365;-84